Time;durP1;ratioP1;P1;durP2;ratioP2;P2;SDS_P1;SDS_P2;PMS_P1;PMS_P2;Temp;Humidity;BMP_temperature;BMP_pressure;BME280_temperature;BME280_humidity;BME280_pressure;Samples;Min_cycle;Max_cycle;Signal;HPM_P1;HPM_P2
2023/10/18 00:01:06;;;;;;;24.57;19.00;;;7.00;99.90;;;;;;5073056;28;20298;-57
2023/10/18 00:03:36;;;;;;;22.33;17.50;;;7.10;99.90;;;;;;5072080;28;20692;-57
2023/10/18 00:06:11;;;;;;;24.00;16.30;;;7.10;99.90;;;;;;5073800;28;20240;-58
2023/10/18 00:08:39;;;;;;;23.33;17.03;;;7.20;99.90;;;;;;5071271;28;20720;-57
2023/10/18 00:11:06;;;;;;;23.93;16.47;;;7.20;99.90;;;;;;5073556;28;20252;-57
2023/10/18 00:13:33;;;;;;;26.13;17.20;;;7.20;99.90;;;;;;5067663;28;20198;-58
2023/10/18 00:16:01;;;;;;;21.27;16.70;;;7.30;99.90;;;;;;5073257;28;20199;-57
2023/10/18 00:18:28;;;;;;;19.60;15.20;;;7.30;99.90;;;;;;5073486;28;20841;-57
2023/10/18 00:21:00;;;;;;;23.57;16.43;;;7.30;99.90;;;;;;5070912;28;20207;-58
2023/10/18 00:23:28;;;;;;;25.90;17.57;;;7.30;99.90;;;;;;5071968;28;20301;-58
2023/10/18 00:25:55;;;;;;;21.07;16.60;;;7.40;99.90;;;;;;5073274;28;20195;-58
2023/10/18 00:28:22;;;;;;;25.43;15.83;;;7.30;99.90;;;;;;5073147;28;20227;-57
2023/10/18 00:30:50;;;;;;;19.03;15.50;;;7.30;99.90;;;;;;5072962;28;20255;-57
2023/10/18 00:33:18;;;;;;;20.57;16.70;;;7.20;99.90;;;;;;5073035;28;20230;-57
2023/10/18 00:35:47;;;;;;;18.87;14.77;;;7.20;99.90;;;;;;5070489;28;20290;-57
2023/10/18 00:38:17;;;;;;;17.60;14.87;;;7.20;99.90;;;;;;5068879;28;20602;-58
2023/10/18 00:40:45;;;;;;;18.13;14.30;;;7.20;99.90;;;;;;5071135;28;20209;-58
2023/10/18 00:43:19;;;;;;;16.53;13.37;;;7.20;99.90;;;;;;5072478;28;20207;-57
2023/10/18 00:45:49;;;;;;;14.87;12.23;;;7.10;99.90;;;;;;5073043;28;20283;-57
2023/10/18 00:48:17;;;;;;;14.33;12.33;;;7.10;99.90;;;;;;5073001;28;20281;-57
2023/10/18 00:50:46;;;;;;;15.00;12.30;;;7.10;99.90;;;;;;5071285;28;20297;-57
2023/10/18 00:53:19;;;;;;;15.83;13.40;;;7.10;99.90;;;;;;5066759;28;20268;-57
2023/10/18 00:55:51;;;;;;;15.67;12.80;;;7.10;99.90;;;;;;5071356;28;20215;-57
2023/10/18 00:58:19;;;;;;;12.40;10.93;;;7.10;99.90;;;;;;5072789;28;20310;-58
2023/10/18 01:00:48;;;;;;;15.83;12.90;;;7.10;99.90;;;;;;5072849;28;20208;-57
2023/10/18 01:03:28;;;;;;;14.50;12.37;;;7.10;99.90;;;;;;5071410;28;20287;-59
2023/10/18 01:06:00;;;;;;;14.23;12.63;;;7.10;99.90;;;;;;5072891;28;20222;-57
2023/10/18 01:08:29;;;;;;;14.57;12.80;;;7.20;99.90;;;;;;5066380;28;20714;-57
2023/10/18 01:11:06;;;;;;;13.70;12.30;;;7.10;99.90;;;;;;5070546;28;20380;-58
2023/10/18 01:13:36;;;;;;;14.67;12.80;;;7.10;99.90;;;;;;5072147;28;20260;-57
2023/10/18 01:16:08;;;;;;;13.53;12.13;;;7.10;99.90;;;;;;5072557;28;20289;-57
2023/10/18 01:18:35;;;;;;;15.07;12.53;;;7.20;99.90;;;;;;5072563;28;20234;-57
2023/10/18 01:21:13;;;;;;;16.47;13.50;;;7.20;99.90;;;;;;5072652;28;20231;-57
2023/10/18 01:23:42;;;;;;;17.63;14.00;;;7.20;99.90;;;;;;5069842;28;20203;-57
2023/10/18 01:26:13;;;;;;;16.13;13.37;;;7.20;99.90;;;;;;5056257;28;20203;-57
2023/10/18 01:28:41;;;;;;;16.00;13.70;;;7.30;99.90;;;;;;5071973;28;20326;-57
2023/10/18 01:31:09;;;;;;;18.60;14.03;;;7.30;99.90;;;;;;5072346;28;20584;-58
2023/10/18 01:33:39;;;;;;;15.47;13.60;;;7.30;99.90;;;;;;5071859;28;20228;-57
2023/10/18 01:36:06;;;;;;;16.53;13.27;;;7.30;99.90;;;;;;5072193;28;20697;-57
2023/10/18 01:38:33;;;;;;;17.13;14.33;;;7.40;99.90;;;;;;5072033;28;20227;-57
2023/10/18 01:41:08;;;;;;;18.27;14.37;;;7.40;99.90;;;;;;5063341;28;20200;-57
2023/10/18 01:43:37;;;;;;;17.20;14.80;;;7.40;99.90;;;;;;5068050;28;20203;-57
2023/10/18 01:46:08;;;;;;;19.73;15.50;;;7.40;99.90;;;;;;5072029;28;20199;-57
2023/10/18 01:48:37;;;;;;;19.73;15.23;;;7.40;99.90;;;;;;5067101;28;20219;-58
2023/10/18 01:51:06;;;;;;;18.20;15.97;;;7.50;99.90;;;;;;5070562;28;20750;-57
2023/10/18 01:53:33;;;;;;;24.43;16.63;;;7.50;99.90;;;;;;5070815;28;20245;-58
2023/10/18 01:56:01;;;;;;;22.00;16.57;;;7.50;99.90;;;;;;5068560;28;20207;-57
2023/10/18 01:58:30;;;;;;;18.23;14.80;;;7.50;99.90;;;;;;5067100;28;20300;-57
2023/10/18 02:01:02;;;;;;;21.73;16.43;;;7.50;99.90;;;;;;5071283;28;20729;-58
2023/10/18 02:03:29;;;;;;;19.27;14.73;;;7.50;99.90;;;;;;5071173;28;20200;-57
2023/10/18 02:05:59;;;;;;;20.87;16.17;;;7.50;99.90;;;;;;5067958;28;20670;-58
2023/10/18 02:08:26;;;;;;;20.33;15.23;;;7.50;99.90;;;;;;5071211;28;20261;-58
2023/10/18 02:10:57;;;;;;;21.07;15.80;;;7.60;99.90;;;;;;5071169;28;20219;-58
2023/10/18 02:13:24;;;;;;;22.70;17.27;;;7.60;99.90;;;;;;5056764;28;20196;-57
2023/10/18 02:15:51;;;;;;;22.27;18.23;;;7.60;99.90;;;;;;5057854;28;20203;-58
2023/10/18 02:18:20;;;;;;;23.60;15.97;;;7.60;99.90;;;;;;5056231;28;20681;-57
2023/10/18 02:20:52;;;;;;;21.27;15.37;;;7.70;99.90;;;;;;5050622;28;20207;-56
2023/10/18 02:23:21;;;;;;;18.23;14.70;;;7.70;99.90;;;;;;5049881;28;20212;-57
2023/10/18 02:25:49;;;;;;;21.23;15.37;;;7.70;99.90;;;;;;5061020;28;20320;-58
2023/10/18 02:28:25;;;;;;;22.07;17.00;;;7.70;99.90;;;;;;5070933;28;20224;-58
2023/10/18 02:30:57;;;;;;;18.10;15.53;;;7.70;99.90;;;;;;5068236;28;20212;-58
2023/10/18 02:33:34;;;;;;;17.67;15.33;;;7.70;99.90;;;;;;5056957;28;20603;-57
2023/10/18 02:36:05;;;;;;;20.33;14.90;;;7.80;99.90;;;;;;5054472;28;20684;-58
2023/10/18 02:38:33;;;;;;;19.73;14.77;;;7.80;99.90;;;;;;5068929;28;20284;-58
2023/10/18 02:41:04;;;;;;;20.47;15.13;;;7.80;99.90;;;;;;5062531;28;20198;-58
2023/10/18 02:43:31;;;;;;;18.57;15.10;;;7.80;99.90;;;;;;5071532;28;20276;-57
2023/10/18 02:46:00;;;;;;;20.93;15.17;;;7.80;99.90;;;;;;5070346;28;20702;-57
2023/10/18 02:48:34;;;;;;;22.90;17.33;;;7.80;99.90;;;;;;5068867;28;20709;-57
2023/10/18 02:51:02;;;;;;;20.33;15.30;;;7.80;99.90;;;;;;5056093;28;20211;-57
2023/10/18 02:53:29;;;;;;;23.77;16.33;;;7.80;99.90;;;;;;5054346;28;20620;-58
2023/10/18 02:55:56;;;;;;;18.83;15.77;;;7.80;99.90;;;;;;5058460;28;20427;-57
2023/10/18 02:58:32;;;;;;;20.13;14.70;;;7.80;99.90;;;;;;5063998;28;20310;-58
2023/10/18 03:01:05;;;;;;;18.93;14.80;;;7.80;99.90;;;;;;5068369;28;20220;-57
2023/10/18 03:03:34;;;;;;;19.77;15.30;;;7.80;99.90;;;;;;5069819;28;20671;-58
2023/10/18 03:06:06;;;;;;;18.07;13.90;;;7.80;99.90;;;;;;5055161;28;20299;-57
2023/10/18 03:08:33;;;;;;;22.60;15.80;;;7.80;99.90;;;;;;5058094;28;20249;-57
2023/10/18 03:11:03;;;;;;;21.17;15.90;;;7.80;99.90;;;;;;5062715;28;20294;-58
2023/10/18 03:13:31;;;;;;;18.77;14.47;;;7.80;99.90;;;;;;5069749;28;20233;-58
2023/10/18 03:16:06;;;;;;;18.90;13.63;;;7.80;99.90;;;;;;5070098;28;20214;-57
2023/10/18 03:18:36;;;;;;;20.03;14.07;;;7.80;99.90;;;;;;5070343;28;20229;-57
2023/10/18 03:21:07;;;;;;;15.20;13.17;;;7.80;99.90;;;;;;5070261;28;20743;-57
2023/10/18 03:23:44;;;;;;;18.93;13.30;;;7.90;99.90;;;;;;5060604;28;20574;-58
2023/10/18 03:26:11;;;;;;;17.33;14.33;;;7.90;99.90;;;;;;5056974;28;20666;-58
2023/10/18 03:28:40;;;;;;;14.10;12.23;;;7.90;99.90;;;;;;5065521;28;20215;-58
2023/10/18 03:31:21;;;;;;;18.17;12.97;;;7.90;99.90;;;;;;5068977;28;20301;-57
2023/10/18 03:33:53;;;;;;;17.27;13.23;;;8.00;99.90;;;;;;5068801;28;20199;-57
2023/10/18 03:36:21;;;;;;;16.70;13.57;;;8.10;99.90;;;;;;5064465;28;20193;-57
2023/10/18 03:38:59;;;;;;;16.30;12.87;;;8.00;99.90;;;;;;5063836;28;20236;-57
2023/10/18 03:41:32;;;;;;;16.00;12.30;;;8.00;99.90;;;;;;5066574;28;20214;-57
2023/10/18 03:44:03;;;;;;;16.67;12.83;;;8.00;99.90;;;;;;5059657;28;20265;-57
2023/10/18 03:46:38;;;;;;;17.50;12.93;;;7.90;99.90;;;;;;5060438;28;20662;-57
2023/10/18 03:49:09;;;;;;;15.47;12.07;;;8.00;99.90;;;;;;5069377;28;20702;-57
2023/10/18 03:51:37;;;;;;;16.00;12.87;;;8.00;99.90;;;;;;5066315;28;20203;-57
2023/10/18 03:54:05;;;;;;;18.73;13.13;;;8.00;99.90;;;;;;5069522;28;20204;-57
2023/10/18 03:56:36;;;;;;;14.97;12.63;;;8.00;99.90;;;;;;5057189;28;20717;-58
2023/10/18 03:59:19;;;;;;;16.03;12.13;;;8.10;99.90;;;;;;5061644;28;20344;-57
2023/10/18 04:02:02;;;;;;;15.93;13.30;;;8.10;99.90;;;;;;5066757;28;20286;-58
2023/10/18 04:04:34;;;;;;;16.97;13.13;;;8.10;99.90;;;;;;5054030;28;20212;-58
2023/10/18 04:07:12;;;;;;;17.07;13.23;;;8.10;99.90;;;;;;5050081;28;20341;-57
2023/10/18 04:09:40;;;;;;;17.33;13.40;;;8.10;99.90;;;;;;5051982;28;20246;-57
2023/10/18 04:12:08;;;;;;;16.87;14.17;;;8.10;99.90;;;;;;5049561;28;20242;-57
2023/10/18 04:14:37;;;;;;;21.13;14.53;;;8.10;99.90;;;;;;5058173;28;20200;-57
2023/10/18 04:17:12;;;;;;;20.07;14.33;;;8.10;99.90;;;;;;5063089;28;20296;-58
2023/10/18 04:19:40;;;;;;;16.73;13.60;;;8.20;99.90;;;;;;5052997;28;20245;-58
2023/10/18 04:22:09;;;;;;;20.33;14.07;;;8.10;99.90;;;;;;5055184;28;20208;-58
2023/10/18 04:24:39;;;;;;;17.47;14.27;;;8.10;99.90;;;;;;5052475;28;20675;-58
2023/10/18 04:27:06;;;;;;;20.53;15.40;;;8.20;99.90;;;;;;5063589;28;20203;-58
2023/10/18 04:29:34;;;;;;;18.97;14.80;;;8.30;99.90;;;;;;5057542;28;20586;-57
2023/10/18 04:32:03;;;;;;;20.30;14.63;;;8.30;99.90;;;;;;5064596;28;20286;-58
2023/10/18 04:34:33;;;;;;;18.17;15.37;;;8.20;99.90;;;;;;5072381;28;20205;-58
2023/10/18 04:37:05;;;;;;;19.00;13.83;;;8.20;99.90;;;;;;5065719;28;20804;-58
2023/10/18 04:39:34;;;;;;;25.63;16.33;;;8.20;99.90;;;;;;5052277;28;20282;-57
2023/10/18 04:42:03;;;;;;;19.77;15.27;;;8.20;99.90;;;;;;5069943;28;20211;-57
2023/10/18 04:44:34;;;;;;;21.37;14.60;;;8.20;99.90;;;;;;5068066;28;20203;-59
2023/10/18 04:47:03;;;;;;;16.70;13.17;;;8.20;99.90;;;;;;5071734;28;20706;-57
2023/10/18 04:49:36;;;;;;;19.43;14.53;;;8.20;99.90;;;;;;5072690;28;20228;-57
2023/10/18 04:52:06;;;;;;;16.17;12.37;;;8.10;99.90;;;;;;5057705;28;20235;-57
2023/10/18 04:54:37;;;;;;;17.63;14.53;;;8.20;99.90;;;;;;5053976;28;20204;-58
2023/10/18 04:57:06;;;;;;;18.93;14.20;;;8.20;99.90;;;;;;5064664;28;20210;-57
2023/10/18 04:59:44;;;;;;;20.80;14.67;;;8.20;99.90;;;;;;5072432;28;20338;-57
2023/10/18 05:02:16;;;;;;;19.03;14.47;;;8.20;99.90;;;;;;5072318;28;20201;-58
2023/10/18 05:04:43;;;;;;;21.50;16.23;;;8.20;99.90;;;;;;5068151;28;20997;-57
2023/10/18 05:07:15;;;;;;;17.67;13.73;;;8.20;99.90;;;;;;5060531;28;20286;-58
2023/10/18 05:09:43;;;;;;;20.73;14.77;;;8.20;99.90;;;;;;5067261;28;20215;-58
2023/10/18 05:12:28;;;;;;;17.83;15.03;;;8.20;99.90;;;;;;5057376;28;20203;-57
2023/10/18 05:15:08;;;;;;;20.73;16.37;;;8.20;99.90;;;;;;5051991;28;20689;-57
2023/10/18 05:17:42;;;;;;;18.77;15.20;;;8.40;99.90;;;;;;5051253;28;20208;-58
2023/10/18 05:20:22;;;;;;;17.47;13.73;;;8.40;99.90;;;;;;5052586;28;20223;-57
2023/10/18 05:22:52;;;;;;;17.93;15.30;;;8.40;99.90;;;;;;5052645;28;20204;-56
2023/10/18 05:25:29;;;;;;;20.70;15.67;;;8.40;99.90;;;;;;5052362;28;20208;-57
2023/10/18 05:28:09;;;;;;;16.77;14.13;;;8.40;99.90;;;;;;5054981;28;20325;-57
2023/10/18 05:36:11;;;;;;;22.43;16.10;;;8.20;99.90;;;;;;5053942;28;20204;-57
2023/10/18 05:38:50;;;;;;;20.73;15.37;;;8.20;99.90;;;;;;5064119;28;20230;-57
2023/10/18 05:41:28;;;;;;;28.83;19.23;;;8.20;99.90;;;;;;5053568;28;20278;-58
2023/10/18 05:43:58;;;;;;;19.90;15.27;;;8.20;99.90;;;;;;5052157;28;20199;-57
2023/10/18 05:46:27;;;;;;;20.67;15.40;;;8.20;99.90;;;;;;5061874;28;20199;-57
2023/10/18 05:48:57;;;;;;;18.27;15.27;;;8.20;99.90;;;;;;5056595;28;20243;-57
2023/10/18 05:51:28;;;;;;;18.57;15.13;;;8.20;99.90;;;;;;5066846;28;20211;-57
2023/10/18 05:53:59;;;;;;;18.73;14.63;;;8.20;99.90;;;;;;5059536;28;20219;-57
2023/10/18 05:56:29;;;;;;;17.97;14.93;;;8.20;99.90;;;;;;5055958;28;20199;-58
2023/10/18 06:01:38;;;;;;;14.93;13.33;;;8.20;99.90;;;;;;5063241;28;20962;-57
2023/10/18 06:04:05;;;;;;;20.07;14.93;;;8.20;99.90;;;;;;5062784;28;20568;-57
2023/10/18 06:06:34;;;;;;;16.03;14.33;;;8.20;99.90;;;;;;5064349;28;20207;-57
2023/10/18 06:09:08;;;;;;;20.17;15.90;;;8.20;99.90;;;;;;5072714;22;20319;-52
2023/10/18 06:11:36;;;;;;;16.73;13.93;;;8.20;99.90;;;;;;5011919;28;20284;-52
2023/10/18 06:14:05;;;;;;;24.50;15.87;;;8.20;99.90;;;;;;5010898;28;20205;-52
2023/10/18 06:16:34;;;;;;;19.90;15.00;;;8.20;99.90;;;;;;5009673;28;20201;-52
2023/10/18 06:19:06;;;;;;;20.87;15.13;;;8.20;99.90;;;;;;5011668;28;20240;-52
2023/10/18 06:21:36;;;;;;;20.47;15.83;;;8.20;99.90;;;;;;5009548;28;20301;-52
2023/10/18 06:24:10;;;;;;;19.97;17.10;;;8.20;99.90;;;;;;5011943;28;20239;-52
2023/10/18 06:26:39;;;;;;;21.10;14.73;;;8.30;99.90;;;;;;5011568;28;20236;-52
2023/10/18 06:29:11;;;;;;;23.60;16.63;;;8.30;99.90;;;;;;5003219;28;20225;-52
2023/10/18 06:31:43;;;;;;;20.10;15.97;;;8.40;99.90;;;;;;5010772;28;20213;-53
2023/10/18 06:34:15;;;;;;;24.07;16.07;;;8.40;99.90;;;;;;5003723;28;20208;-52
2023/10/18 06:36:42;;;;;;;21.63;17.47;;;8.40;99.90;;;;;;5006146;28;20649;-52
2023/10/18 06:39:24;;;;;;;21.87;16.23;;;8.40;99.90;;;;;;5009384;28;20225;-52
2023/10/18 06:41:53;;;;;;;22.77;17.60;;;8.40;99.90;;;;;;5011595;28;20240;-52
2023/10/18 06:44:20;;;;;;;20.60;15.87;;;8.40;99.90;;;;;;5011711;28;20348;-52
2023/10/18 06:46:48;;;;;;;23.57;17.43;;;8.40;99.90;;;;;;5011770;28;20209;-52
2023/10/18 06:49:15;;;;;;;25.87;17.30;;;8.40;99.90;;;;;;5011637;28;20709;-52
2023/10/18 06:51:43;;;;;;;21.90;16.63;;;8.40;99.90;;;;;;5010763;28;20232;-52
2023/10/18 06:54:14;;;;;;;21.70;16.13;;;8.50;99.90;;;;;;5011121;28;20212;-53
2023/10/18 06:56:45;;;;;;;22.43;17.60;;;8.50;99.90;;;;;;5011862;28;20207;-53
2023/10/18 06:59:13;;;;;;;23.07;16.57;;;8.60;99.90;;;;;;5011518;28;20228;-53
2023/10/18 07:01:44;;;;;;;22.83;17.37;;;8.70;99.90;;;;;;5011805;28;20216;-54
2023/10/18 07:04:18;;;;;;;24.33;16.70;;;8.70;99.90;;;;;;5005314;28;20234;-54
2023/10/18 07:06:45;;;;;;;21.23;15.47;;;8.60;99.90;;;;;;5011237;28;20215;-54
2023/10/18 07:09:26;;;;;;;20.87;15.87;;;8.60;99.90;;;;;;5010518;28;20240;-53
2023/10/18 07:11:57;;;;;;;21.57;17.03;;;8.60;99.90;;;;;;5011777;28;20205;-53
2023/10/18 07:14:24;;;;;;;26.03;17.57;;;8.70;99.90;;;;;;5009444;28;20209;-53
2023/10/18 07:16:54;;;;;;;20.20;15.80;;;8.70;99.90;;;;;;5010427;28;20311;-53
2023/10/18 07:19:29;;;;;;;23.77;17.52;;;8.70;99.90;;;;;;5005204;28;20458;-53
2023/10/18 07:21:57;;;;;;;24.43;18.40;;;8.80;99.90;;;;;;5009940;28;20208;-55
2023/10/18 07:24:32;;;;;;;24.03;16.80;;;8.80;99.90;;;;;;5010133;28;20309;-55
2023/10/18 07:27:03;;;;;;;21.37;16.33;;;8.80;99.90;;;;;;5011215;28;20293;-56
2023/10/18 07:29:31;;;;;;;22.87;17.50;;;8.80;99.90;;;;;;5011151;28;20693;-54
2023/10/18 07:32:06;;;;;;;30.67;17.90;;;8.80;99.90;;;;;;5009295;28;20236;-54
2023/10/18 07:34:36;;;;;;;20.60;16.50;;;8.90;99.90;;;;;;5010392;28;20311;-54
2023/10/18 07:37:17;;;;;;;22.80;16.77;;;8.80;99.90;;;;;;5010725;28;20205;-53
2023/10/18 07:39:48;;;;;;;23.40;17.30;;;8.80;99.90;;;;;;5009622;28;20248;-54
2023/10/18 07:42:18;;;;;;;24.00;17.83;;;8.80;99.90;;;;;;5007964;28;20674;-53
2023/10/18 07:44:46;;;;;;;24.90;18.07;;;8.90;99.90;;;;;;5010183;28;20215;-54
2023/10/18 07:47:18;;;;;;;26.73;19.87;;;9.00;99.90;;;;;;5007243;28;20235;-56
2023/10/18 07:49:46;;;;;;;32.93;20.23;;;8.90;99.90;;;;;;5012373;28;20596;-57
2023/10/18 07:52:13;;;;;;;30.30;19.77;;;8.90;99.90;;;;;;5013779;28;20283;-57
2023/10/18 07:54:40;;;;;;;31.43;18.20;;;9.00;99.90;;;;;;5013583;28;20204;-57
2023/10/18 07:57:15;;;;;;;25.30;17.87;;;8.80;99.90;;;;;;5005798;28;20285;-57
2023/10/18 07:59:47;;;;;;;27.23;18.90;;;8.90;99.90;;;;;;5010289;28;20228;-56
2023/10/18 08:02:19;;;;;;;28.53;18.50;;;8.90;99.90;;;;;;5013275;28;20241;-56
2023/10/18 08:04:47;;;;;;;23.37;17.90;;;9.00;99.90;;;;;;5012705;28;20199;-57
2023/10/18 08:07:19;;;;;;;23.80;17.50;;;9.00;99.90;;;;;;5009666;28;20282;-57
2023/10/18 08:09:48;;;;;;;21.90;16.27;;;9.10;99.90;;;;;;5011566;28;20225;-57
2023/10/18 08:12:30;;;;;;;21.77;16.13;;;9.20;99.90;;;;;;5013799;28;20210;-56
2023/10/18 08:14:57;;;;;;;23.83;15.60;;;9.20;99.90;;;;;;5014176;28;20205;-57
2023/10/18 08:17:30;;;;;;;21.33;16.77;;;9.10;99.90;;;;;;5014242;28;20241;-57
2023/10/18 08:19:57;;;;;;;24.47;16.37;;;9.20;99.90;;;;;;5013031;28;20322;-57
2023/10/18 08:22:27;;;;;;;24.07;17.00;;;9.10;99.90;;;;;;5013354;28;20275;-56
2023/10/18 08:24:54;;;;;;;22.73;16.80;;;9.20;99.90;;;;;;5014825;28;20193;-57
2023/10/18 08:27:23;;;;;;;22.13;15.70;;;9.20;99.90;;;;;;5019379;28;20192;-57
2023/10/18 08:29:56;;;;;;;24.43;16.30;;;9.30;99.90;;;;;;5013953;28;20308;-58
2023/10/18 08:32:30;;;;;;;21.67;17.20;;;9.50;99.90;;;;;;5014162;28;20207;-57
2023/10/18 08:35:07;;;;;;;23.07;17.77;;;9.70;99.90;;;;;;5015279;28;20201;-57
2023/10/18 08:37:36;;;;;;;22.77;16.20;;;10.00;99.90;;;;;;5012647;28;20201;-57
2023/10/18 08:40:15;;;;;;;20.27;14.43;;;10.20;99.90;;;;;;5014520;28;20221;-56
2023/10/18 08:42:51;;;;;;;24.77;17.23;;;10.20;99.90;;;;;;5013415;28;20641;-57
2023/10/18 08:45:23;;;;;;;18.93;14.67;;;10.60;99.90;;;;;;5022609;28;20588;-57
2023/10/18 08:47:57;;;;;;;16.67;14.37;;;10.70;99.90;;;;;;5017374;28;20197;-56
2023/10/18 08:50:29;;;;;;;21.93;14.83;;;10.80;99.90;;;;;;5014020;28;20221;-56
2023/10/18 08:52:56;;;;;;;17.87;14.60;;;10.90;99.90;;;;;;5012768;28;20576;-56
2023/10/18 08:55:43;;;;;;;17.00;13.03;;;11.10;99.90;;;;;;5013475;28;20209;-56
2023/10/18 08:58:17;;;;;;;15.70;13.60;;;11.10;99.90;;;;;;5013372;28;20201;-56
2023/10/18 09:03:31;;;;;;;16.47;12.63;;;11.20;99.90;;;;;;5008827;28;20712;-56
2023/10/18 09:06:07;;;;;;;15.90;14.23;;;11.20;99.90;;;;;;5012775;28;20205;-57
2023/10/18 09:08:36;;;;;;;15.13;12.47;;;11.30;99.90;;;;;;5013095;28;20208;-57
2023/10/18 09:11:09;;;;;;;17.63;12.17;;;11.40;99.90;;;;;;5015086;28;20230;-59
2023/10/18 09:13:42;;;;;;;17.47;14.17;;;11.50;99.90;;;;;;5014035;28;20253;-60
2023/10/18 09:16:19;;;;;;;14.50;12.97;;;11.40;99.90;;;;;;5008829;28;20688;-60
2023/10/18 09:18:48;;;;;;;17.63;15.00;;;11.50;99.90;;;;;;5010317;28;20310;-60
2023/10/18 09:21:19;;;;;;;19.80;14.27;;;11.30;99.90;;;;;;5021178;28;20296;-61
2023/10/18 09:23:49;;;;;;;16.17;14.13;;;11.40;99.90;;;;;;5013412;28;20309;-58
2023/10/18 09:26:26;;;;;;;15.80;12.57;;;11.70;99.90;;;;;;5011567;28;20285;-58
2023/10/18 09:28:56;;;;;;;17.07;13.40;;;12.00;99.90;;;;;;5022455;28;20225;-57
2023/10/18 09:31:23;;;;;;;15.77;13.60;;;12.20;99.90;;;;;;5033004;28;20229;-57
2023/10/18 09:33:52;;;;;;;16.63;13.47;;;12.70;99.90;;;;;;5023591;28;20205;-58
2023/10/18 09:36:22;;;;;;;17.43;13.43;;;13.20;99.90;;;;;;5018664;28;20212;-57
2023/10/18 09:38:50;;;;;;;15.87;12.90;;;13.40;99.90;;;;;;5011742;28;20226;-57
2023/10/18 09:41:17;;;;;;;14.33;12.13;;;13.90;99.90;;;;;;5020256;28;20274;-58
2023/10/18 09:43:45;;;;;;;17.37;12.70;;;14.50;99.90;;;;;;5007893;28;20207;-58
2023/10/18 09:46:15;;;;;;;18.80;14.37;;;14.70;99.90;;;;;;5012955;28;20191;-58
2023/10/18 09:48:44;;;;;;;12.87;11.50;;;15.50;99.90;;;;;;5012780;28;20233;-58
2023/10/18 09:51:14;;;;;;;13.80;11.67;;;15.90;99.90;;;;;;5020239;28;20202;-58
2023/10/18 09:53:43;;;;;;;14.73;12.10;;;15.70;99.90;;;;;;5011320;28;20203;-60
2023/10/18 09:56:12;;;;;;;13.63;12.23;;;15.60;99.90;;;;;;5024757;28;20591;-58
2023/10/18 09:58:43;;;;;;;12.70;11.60;;;15.60;99.90;;;;;;5024174;28;20250;-58
2023/10/18 10:01:26;;;;;;;13.03;11.73;;;15.90;99.90;;;;;;5018752;28;20314;-53
2023/10/18 10:03:56;;;;;;;13.43;12.10;;;16.00;99.90;;;;;;5020546;28;20201;-54
2023/10/18 10:06:24;;;;;;;14.30;12.63;;;15.20;99.90;;;;;;5026170;28;20233;-53
2023/10/18 10:08:55;;;;;;;14.27;12.37;;;15.10;99.90;;;;;;5031972;28;20759;-58
2023/10/18 10:11:29;;;;;;;15.30;13.90;;;14.80;99.90;;;;;;5025975;28;20249;-56
2023/10/18 10:14:00;;;;;;;14.20;11.63;;;14.60;99.90;;;;;;5014055;28;20295;-55
2023/10/18 10:16:30;;;;;;;13.60;12.20;;;14.50;99.90;;;;;;5017762;28;20222;-55
2023/10/18 10:19:04;;;;;;;11.50;10.30;;;13.90;99.90;;;;;;5011712;28;20214;-57
2023/10/18 10:21:33;;;;;;;21.23;14.57;;;13.70;99.90;;;;;;5012244;28;20210;-56
2023/10/18 10:24:06;;;;;;;16.60;13.83;;;13.60;99.90;;;;;;5011454;28;20202;-55
2023/10/18 10:26:36;;;;;;;15.03;13.13;;;13.40;99.90;;;;;;5009349;28;20677;-57
2023/10/18 10:31:55;;;;;;;19.60;15.10;;;13.20;99.90;;;;;;5011727;28;20204;-53
2023/10/18 10:34:32;;;;;;;16.70;14.80;;;13.00;99.90;;;;;;5011477;28;20210;-53
2023/10/18 10:37:08;;;;;;;19.17;14.93;;;12.80;99.90;;;;;;5011692;28;20213;-54
2023/10/18 10:39:44;;;;;;;18.80;13.90;;;12.70;99.90;;;;;;5010594;28;20280;-53
2023/10/18 10:42:19;;;;;;;14.83;12.70;;;12.60;99.90;;;;;;5011770;28;20292;-53
2023/10/18 10:45:10;;;;;;;16.52;14.02;;;12.50;99.90;;;;;;5010521;28;20535;-53
2023/10/18 10:47:43;;;;;;;16.27;12.60;;;12.50;99.90;;;;;;5011611;28;20195;-54
2023/10/18 10:50:32;;;;;;;15.53;12.50;;;12.30;99.90;;;;;;5011898;28;20308;-52
2023/10/18 10:53:05;;;;;;;19.63;14.27;;;12.30;99.90;;;;;;5010950;28;20230;-54
2023/10/18 10:55:34;;;;;;;15.50;13.60;;;12.30;99.90;;;;;;5012025;28;20669;-55
2023/10/18 10:58:15;;;;;;;16.47;13.67;;;12.30;99.90;;;;;;5011874;28;20707;-56
2023/10/18 11:00:59;;;;;;;16.77;13.57;;;12.30;99.90;;;;;;5019455;28;20591;-57
2023/10/18 11:03:30;;;;;;;16.03;13.80;;;12.50;99.90;;;;;;5014326;28;20199;-58
2023/10/18 11:06:05;;;;;;;17.93;13.63;;;12.60;99.90;;;;;;5029808;28;20252;-58
2023/10/18 11:08:35;;;;;;;16.73;13.93;;;12.50;99.90;;;;;;5011935;28;20201;-57
2023/10/18 11:11:06;;;;;;;16.27;13.80;;;12.60;99.90;;;;;;5022683;28;20190;-57
2023/10/18 11:13:36;;;;;;;15.67;13.47;;;12.40;99.90;;;;;;5022735;28;20208;-57
2023/10/18 11:16:05;;;;;;;17.53;12.33;;;12.30;99.90;;;;;;5026642;28;20203;-58
2023/10/18 11:18:39;;;;;;;19.80;15.20;;;12.30;99.90;;;;;;5022817;28;20190;-58
2023/10/18 11:21:18;;;;;;;15.30;12.80;;;12.30;99.90;;;;;;5029790;28;20232;-57
2023/10/18 11:23:46;;;;;;;18.07;13.90;;;12.20;99.90;;;;;;5006262;28;20195;-57
2023/10/18 11:26:19;;;;;;;14.17;12.70;;;12.10;99.90;;;;;;5022477;28;20212;-58
2023/10/18 11:28:46;;;;;;;17.93;13.20;;;12.00;99.90;;;;;;5030987;28;20235;-58
2023/10/18 11:31:14;;;;;;;17.50;13.57;;;11.80;99.90;;;;;;5029815;28;20204;-55
2023/10/18 11:33:54;;;;;;;15.90;13.13;;;11.60;99.90;;;;;;5010094;28;20257;-57
2023/10/18 11:36:27;;;;;;;19.33;14.27;;;11.40;99.90;;;;;;5009445;28;20209;-58
2023/10/18 11:41:41;;;;;;;16.57;14.33;;;11.40;99.90;;;;;;5011329;28;20349;-57
2023/10/18 11:44:10;;;;;;;16.20;14.17;;;11.50;99.90;;;;;;5010006;28;20233;-56
2023/10/18 11:46:51;;;;;;;21.33;14.50;;;11.50;99.90;;;;;;5010980;28;20202;-57
2023/10/18 11:49:19;;;;;;;15.63;13.57;;;11.40;99.90;;;;;;5003992;28;20257;-56
2023/10/18 11:51:49;;;;;;;23.20;14.13;;;11.40;99.90;;;;;;5010600;28;20244;-56
2023/10/18 11:54:31;;;;;;;15.90;13.63;;;11.50;99.90;;;;;;5010529;28;20702;-57
2023/10/18 11:56:59;;;;;;;15.77;13.13;;;11.50;99.90;;;;;;5011083;28;20278;-57
2023/10/18 11:59:29;;;;;;;15.10;13.35;;;11.60;99.90;;;;;;5009854;28;20221;-57
2023/10/18 12:01:57;;;;;;;16.57;13.60;;;11.70;99.90;;;;;;5010842;28;20244;-56
2023/10/18 12:04:28;;;;;;;18.20;14.57;;;11.80;99.90;;;;;;5010760;28;20202;-57
2023/10/18 12:06:58;;;;;;;18.37;14.37;;;11.90;99.90;;;;;;5011008;28;20209;-57
2023/10/18 12:09:30;;;;;;;15.37;13.53;;;11.90;99.90;;;;;;5011008;28;20281;-56
2023/10/18 12:11:58;;;;;;;16.57;13.47;;;12.00;99.90;;;;;;5009282;28;20664;-55
2023/10/18 12:14:25;;;;;;;15.77;14.07;;;12.10;99.90;;;;;;5007788;28;20202;-53
2023/10/18 12:16:54;;;;;;;15.73;12.27;;;12.00;99.90;;;;;;5010342;28;20203;-53
2023/10/18 12:19:21;;;;;;;17.10;13.40;;;12.10;99.90;;;;;;5010599;28;20705;-53
2023/10/18 12:21:54;;;;;;;13.73;12.30;;;12.10;99.90;;;;;;5010725;28;20276;-53
2023/10/18 12:24:24;;;;;;;16.57;12.70;;;12.00;99.90;;;;;;5010323;28;20206;-53
2023/10/18 12:26:54;;;;;;;14.07;12.57;;;12.20;99.90;;;;;;5042068;22;20192;-61
2023/10/18 12:29:26;;;;;;;15.53;11.73;;;12.20;99.90;;;;;;5110170;28;20198;-61
2023/10/18 12:32:18;;;;;;;15.20;12.73;;;12.40;99.90;;;;;;5111394;28;20194;-60
2023/10/18 12:34:48;;;;;;;17.00;12.37;;;12.60;99.90;;;;;;5111488;28;20200;-61
2023/10/18 12:37:16;;;;;;;18.20;12.53;;;12.60;99.90;;;;;;5100884;28;20225;-61
2023/10/18 12:39:47;;;;;;;15.93;12.50;;;12.80;99.90;;;;;;5094504;28;20687;-61
2023/10/18 12:42:19;;;;;;;14.07;12.57;;;12.70;99.90;;;;;;5094704;28;20203;-61
2023/10/18 12:44:46;;;;;;;12.60;11.27;;;12.70;99.90;;;;;;5094058;28;20201;-61
2023/10/18 12:47:19;;;;;;;14.77;12.57;;;12.70;99.90;;;;;;5093443;28;20220;-61
2023/10/18 12:49:50;;;;;;;13.03;11.73;;;12.50;99.90;;;;;;5094215;28;20663;-61
2023/10/18 12:55:08;;;;;;;13.70;12.13;;;12.50;99.90;;;;;;5093142;28;20216;-61
2023/10/18 12:57:34;;;;;;;14.83;11.77;;;12.30;99.90;;;;;;5094046;28;20302;-61
2023/10/18 13:00:13;;;;;;;13.00;11.67;;;12.20;99.90;;;;;;5106037;28;20705;-61
2023/10/18 13:03:04;;;;;;;12.90;11.60;;;12.30;99.90;;;;;;5093477;28;20702;-61
2023/10/18 13:05:41;;;;;;;15.50;13.20;;;12.30;99.90;;;;;;5094093;28;20193;-62
2023/10/18 13:08:15;;;;;;;14.10;12.10;;;12.30;99.90;;;;;;5093677;28;20261;-61
2023/10/18 13:10:48;;;;;;;13.03;10.53;;;12.20;99.90;;;;;;5092728;28;20207;-61
2023/10/18 13:13:16;;;;;;;13.50;12.10;;;12.20;99.90;;;;;;5085707;28;20201;-61